Time;durP1;ratioP1;P1;durP2;ratioP2;P2;SDS_P1;SDS_P2;PMS_P1;PMS_P2;Temp;Humidity;BMP_temperature;BMP_pressure;BME280_temperature;BME280_humidity;BME280_pressure;Samples;Min_cycle;Max_cycle;Signal;HPM_P1;HPM_P2
2022/08/21 00:00:47;;;;;;;;;;;;;;;22.28;58.65;101357.94;1053736;28;696;-67
2022/08/21 00:01:38;;;;;;;;;;;;;;;22.27;58.82;101365.22;1053722;28;738;-67
2022/08/21 00:02:29;;;;;;;;;;;;;;;22.28;58.78;101361.50;1053816;28;769;-68
2022/08/21 00:03:19;;;;;;;;;;;;;;;22.27;58.53;101365.22;1053703;28;632;-67
2022/08/21 00:04:10;;;;;;;;;;;;;;;22.27;58.47;101365.22;1053162;28;616;-67
2022/08/21 00:05:00;;;;;;;;;;;;;;;22.28;58.17;101360.66;1053109;28;641;-67
2022/08/21 00:05:51;;;;;;;;;;;;;;;22.27;58.54;101367.94;1053163;28;716;-67
2022/08/21 00:06:41;;;;;;;;;;;;;;;22.27;58.71;101358.94;1053068;28;696;-67
2022/08/21 00:07:32;;;;;;;;;;;;;;;22.24;59.03;101360.13;1053740;28;692;-67
2022/08/21 00:08:23;;;;;;;;;;;;;;;22.25;58.58;101363.69;1053690;28;637;-67
2022/08/21 00:09:13;;;;;;;;;;;;;;;22.23;58.66;101366.56;1053027;28;630;-67
2022/08/21 00:10:04;;;;;;;;;;;;;;;22.25;58.90;101353.69;1053012;28;762;-67
2022/08/21 00:10:54;;;;;;;;;;;;;;;22.22;58.64;101359.44;1053012;28;673;-67
2022/08/21 00:11:44;;;;;;;;;;;;;;;22.21;58.98;101363.19;1052616;28;637;-68
2022/08/21 00:12:35;;;;;;;;;;;;;;;22.22;58.50;101359.44;1053506;28;1247;-67
2022/08/21 00:13:25;;;;;;;;;;;;;;;22.21;58.87;101359.63;1053077;28;669;-67
2022/08/21 00:14:16;;;;;;;;;;;;;;;22.23;59.04;101368.41;1053006;28;543;-67
2022/08/21 00:15:06;;;;;;;;;;;;;;;22.23;58.78;101363.00;1052400;28;649;-67
2022/08/21 00:15:57;;;;;;;;;;;;;;;22.22;58.61;101361.28;1052639;28;712;-67
2022/08/21 00:16:47;;;;;;;;;;;;;;;22.21;58.95;101359.63;1052340;28;698;-67
2022/08/21 00:17:38;;;;;;;;;;;;;;;22.22;58.57;101366.72;1053043;28;653;-67
2022/08/21 00:18:28;;;;;;;;;;;;;;;22.20;59.06;101363.34;1052542;28;661;-67
2022/08/21 00:19:19;;;;;;;;;;;;;;;22.21;58.86;101360.47;1052663;28;728;-67
2022/08/21 00:20:09;;;;;;;;;;;;;;;22.19;58.76;101359.78;1052754;28;1901;-67
2022/08/21 00:21:00;;;;;;;;;;;;;;;22.19;58.85;101362.50;1053084;28;672;-67
2022/08/21 00:21:50;;;;;;;;;;;;;;;22.19;58.59;101367.91;1053040;28;649;-67
2022/08/21 00:22:41;;;;;;;;;;;;;;;22.17;58.89;101364.50;1053132;28;666;-67
2022/08/21 00:23:31;;;;;;;;;;;;;;;22.18;58.93;101363.50;1053062;28;685;-67
2022/08/21 00:24:22;;;;;;;;;;;;;;;22.16;58.75;101352.81;1048655;28;637;-67
2022/08/21 00:25:12;;;;;;;;;;;;;;;22.15;58.76;101356.53;1049144;28;645;-67
2022/08/21 00:26:03;;;;;;;;;;;;;;;22.15;58.94;101351.09;1052633;28;665;-67
2022/08/21 00:26:53;;;;;;;;;;;;;;;22.16;58.70;101349.22;1052372;28;629;-68
2022/08/21 00:27:43;;;;;;;;;;;;;;;22.14;59.04;101352.09;1052580;28;739;-67
2022/08/21 00:28:34;;;;;;;;;;;;;;;22.16;58.63;101343.81;1052380;28;657;-67
2022/08/21 00:29:24;;;;;;;;;;;;;;;22.15;58.65;101350.25;1052429;28;732;-67
2022/08/21 00:30:15;;;;;;;;;;;;;;;22.15;58.88;101339.38;1052612;28;696;-67
2022/08/21 00:31:05;;;;;;;;;;;;;;;22.15;58.91;101344.81;1053570;28;697;-67
2022/08/21 00:31:56;;;;;;;;;;;;;;;22.14;58.95;101346.69;1052499;28;709;-67
2022/08/21 00:32:46;;;;;;;;;;;;;;;22.13;58.86;101346.84;1052399;28;696;-67
2022/08/21 00:33:36;;;;;;;;;;;;;;;22.15;58.74;101342.97;1052451;28;717;-67
2022/08/21 00:34:27;;;;;;;;;;;;;;;22.13;58.78;101346.84;1053632;28;751;-67
2022/08/21 00:35:18;;;;;;;;;;;;;;;22.12;58.87;101345.13;1053040;28;649;-67
2022/08/21 00:36:08;;;;;;;;;;;;;;;22.11;58.72;101346.16;1049754;28;774;-67
2022/08/21 00:36:58;;;;;;;;;;;;;;;22.09;59.13;101345.47;1049159;28;692;-67
2022/08/21 00:37:49;;;;;;;;;;;;;;;22.09;59.07;101348.16;1053114;28;648;-67
2022/08/21 00:38:39;;;;;;;;;;;;;;;22.10;59.02;101350.72;1053023;28;653;-67
2022/08/21 00:39:30;;;;;;;;;;;;;;;22.08;59.08;101347.31;1052977;28;665;-67
2022/08/21 00:40:20;;;;;;;;;;;;;;;22.09;58.83;101345.47;1052886;28;1909;-67
2022/08/21 00:41:10;;;;;;;;;;;;;;;22.10;58.81;101345.28;1052926;28;723;-67
2022/08/21 00:42:01;;;;;;;;;;;;;;;22.10;59.00;101341.72;1048413;28;661;-67
2022/08/21 00:42:51;;;;;;;;;;;;;;;22.11;58.94;101343.44;1049135;28;637;-67
2022/08/21 00:43:42;;;;;;;;;;;;;;;22.10;59.02;101339.00;1053037;28;749;-67
2022/08/21 00:44:32;;;;;;;;;;;;;;;22.10;58.96;101347.16;1053011;28;634;-67
2022/08/21 00:45:23;;;;;;;;;;;;;;;22.10;58.73;101345.28;1053080;28;728;-68
2022/08/21 00:46:13;;;;;;;;;;;;;;;22.10;59.22;101341.72;1052936;28;630;-68
2022/08/21 00:47:04;;;;;;;;;;;;;;;22.09;58.68;101346.31;1053030;28;677;-67
2022/08/21 00:47:54;;;;;;;;;;;;;;;22.07;58.68;101339.34;1052956;28;724;-67
2022/08/21 00:48:45;;;;;;;;;;;;;;;22.04;58.92;101342.38;1054169;28;735;-67
2022/08/21 00:49:36;;;;;;;;;;;;;;;22.04;59.11;101337.78;1053055;28;659;-67
2022/08/21 00:50:27;;;;;;;;;;;;;;;22.04;58.70;101342.38;1048628;28;641;-67
2022/08/21 00:51:22;;;;;;;;;;;;;;;22.06;59.18;101345.78;1049173;28;648;-67
2022/08/21 00:52:12;;;;;;;;;;;;;;;22.05;58.76;101341.34;1052908;28;625;-67
2022/08/21 00:53:02;;;;;;;;;;;;;;;22.05;58.75;101334.06;1052443;28;684;-66
2022/08/21 00:53:53;;;;;;;;;;;;;;;22.03;58.93;101341.53;1053518;28;731;-66
2022/08/21 00:54:43;;;;;;;;;;;;;;;22.02;58.80;101339.00;1052511;28;875;-67
2022/08/21 00:55:34;;;;;;;;;;;;;;;22.03;59.08;101340.69;1052616;28;634;-67
2022/08/21 00:56:24;;;;;;;;;;;;;;;22.04;58.83;101339.66;1052368;28;961;-67
2022/08/21 00:57:15;;;;;;;;;;;;;;;22.01;59.02;101343.56;1052443;28;731;-67
2022/08/21 00:58:07;;;;;;;;;;;;;;;22.00;58.93;101349.16;1052594;28;673;-67
2022/08/21 00:58:57;;;;;;;;;;;;;;;21.99;58.97;101342.84;1052323;28;709;-67
2022/08/21 00:59:48;;;;;;;;;;;;;;;21.99;59.22;101336.56;1053062;28;660;-67
2022/08/21 01:00:38;;;;;;;;;;;;;;;22.02;58.98;101339.00;1052360;28;653;-67
2022/08/21 01:01:29;;;;;;;;;;;;;;;22.02;58.93;101344.41;1052627;28;688;-67
2022/08/21 01:02:20;;;;;;;;;;;;;;;22.01;59.11;101338.13;1052392;28;630;-67
2022/08/21 01:03:10;;;;;;;;;;;;;;;22.02;58.98;101339.00;1052816;28;653;-67
2022/08/21 01:04:01;;;;;;;;;;;;;;;21.99;58.81;101347.41;1052537;28;657;-67
2022/08/21 01:04:51;;;;;;;;;;;;;;;22.00;58.94;101349.16;1052295;28;645;-67
2022/08/21 01:05:42;;;;;;;;;;;;;;;22.01;59.18;101348.16;1052533;28;662;-67
2022/08/21 01:06:32;;;;;;;;;;;;;;;21.96;59.02;101345.03;1047876;28;634;-67
2022/08/21 01:07:22;;;;;;;;;;;;;;;21.98;59.13;101345.72;1049072;28;701;-67
2022/08/21 01:08:13;;;;;;;;;;;;;;;21.98;59.09;101346.56;1049851;28;629;-67
2022/08/21 01:09:03;;;;;;;;;;;;;;;21.97;59.20;101341.31;1049104;28;645;-67
2022/08/21 01:09:54;;;;;;;;;;;;;;;21.99;58.88;101333.84;1053522;28;645;-68
2022/08/21 01:10:44;;;;;;;;;;;;;;;21.99;59.01;101351.00;1052957;28;653;-68
2022/08/21 01:11:35;;;;;;;;;;;;;;;21.98;59.02;101340.28;1053069;28;641;-67
2022/08/21 01:12:26;;;;;;;;;;;;;;;21.96;58.86;101342.31;1052926;28;1200;-67
2022/08/21 01:13:16;;;;;;;;;;;;;;;21.95;59.19;101343.31;1052885;28;622;-67
2022/08/21 01:14:07;;;;;;;;;;;;;;;21.97;59.14;101341.31;1053591;28;862;-67
2022/08/21 01:14:58;;;;;;;;;;;;;;;21.93;59.21;101339.91;1052863;28;669;-67
2022/08/21 01:15:48;;;;;;;;;;;;;;;21.91;59.00;101337.34;1049095;28;641;-67
2022/08/21 01:16:39;;;;;;;;;;;;;;;21.91;59.08;101347.38;1048669;28;672;-67
2022/08/21 01:17:30;;;;;;;;;;;;;;;21.90;59.28;101346.50;1049146;28;657;-67
2022/08/21 01:18:21;;;;;;;;;;;;;;;21.94;59.23;101347.03;1048518;28;685;-67
2022/08/21 01:19:11;;;;;;;;;;;;;;;21.93;58.92;101345.34;1053426;28;641;-67
2022/08/21 01:20:02;;;;;;;;;;;;;;;21.92;58.94;101349.06;1052085;28;1963;-67
2022/08/21 01:20:52;;;;;;;;;;;;;;;21.91;58.96;101344.66;1052933;28;665;-67
2022/08/21 01:21:43;;;;;;;;;;;;;;;21.92;59.09;101344.50;1053056;28;732;-68
2022/08/21 01:22:33;;;;;;;;;;;;;;;21.92;58.93;101349.06;1048479;28;653;-67
2022/08/21 01:23:24;;;;;;;;;;;;;;;21.91;58.74;101339.22;1048522;28;1266;-67
2022/08/21 01:24:14;;;;;;;;;;;;;;;21.90;59.27;101353.81;1052288;28;681;-68
2022/08/21 01:25:04;;;;;;;;;;;;;;;21.90;59.24;101340.22;1052887;28;650;-67
2022/08/21 01:25:55;;;;;;;;;;;;;;;21.91;58.91;101344.66;1053517;28;692;-67
2022/08/21 01:26:46;;;;;;;;;;;;;;;21.91;59.00;101339.22;1053197;28;633;-67
2022/08/21 01:27:36;;;;;;;;;;;;;;;21.89;59.09;101339.38;1054301;28;680;-67
2022/08/21 01:28:26;;;;;;;;;;;;;;;21.90;59.17;101343.78;1054274;28;657;-67
2022/08/21 01:29:17;;;;;;;;;;;;;;;21.88;59.28;101343.09;1054263;28;707;-67
2022/08/21 01:30:07;;;;;;;;;;;;;;;21.90;58.99;101341.09;1052949;28;693;-67
2022/08/21 01:30:58;;;;;;;;;;;;;;;21.92;58.88;101349.06;1054208;28;653;-68
2022/08/21 01:31:48;;;;;;;;;;;;;;;21.91;58.93;101342.78;1053678;28;724;-67
2022/08/21 01:32:39;;;;;;;;;;;;;;;21.88;59.05;101342.25;1052912;28;654;-67
2022/08/21 01:33:29;;;;;;;;;;;;;;;21.87;59.31;101344.13;1051486;28;760;-67
2022/08/21 01:34:19;;;;;;;;;;;;;;;21.86;59.13;101345.13;1048839;28;685;-67
2022/08/21 01:35:11;;;;;;;;;;;;;;;21.87;59.18;101345.97;1053455;28;721;-67
2022/08/21 01:36:01;;;;;;;;;;;;;;;21.88;59.09;101344.97;1049065;28;681;-67
2022/08/21 01:36:52;;;;;;;;;;;;;;;21.88;59.07;101340.38;1049807;28;613;-67
2022/08/21 01:37:42;;;;;;;;;;;;;;;21.89;59.02;101338.53;1053573;28;712;-67
2022/08/21 01:38:32;;;;;;;;;;;;;;;21.85;59.20;101335.31;1053271;28;677;-67
2022/08/21 01:39:23;;;;;;;;;;;;;;;21.85;59.47;101334.47;1053683;28;720;-67
2022/08/21 01:40:13;;;;;;;;;;;;;;;21.85;59.32;101335.31;1053357;28;1902;-67
2022/08/21 01:41:04;;;;;;;;;;;;;;;21.85;59.16;101338.03;1053724;28;649;-67
2022/08/21 01:41:54;;;;;;;;;;;;;;;21.82;59.08;101341.06;1053631;28;637;-67
2022/08/21 01:42:45;;;;;;;;;;;;;;;21.82;59.16;101335.63;1053736;28;716;-67
2022/08/21 01:43:35;;;;;;;;;;;;;;;21.83;59.26;101345.47;1053750;28;601;-67
2022/08/21 01:44:26;;;;;;;;;;;;;;;21.82;59.28;101338.34;1049194;28;719;-67
2022/08/21 01:45:16;;;;;;;;;;;;;;;21.81;59.13;101337.50;1049133;28;625;-67
2022/08/21 01:46:07;;;;;;;;;;;;;;;21.78;59.42;101339.66;1053407;28;723;-67
2022/08/21 01:46:57;;;;;;;;;;;;;;;21.77;59.15;101341.53;1053558;28;700;-67
2022/08/21 01:47:47;;;;;;;;;;;;;;;21.78;59.22;101335.09;1053738;28;641;-67
2022/08/21 01:48:38;;;;;;;;;;;;;;;21.78;59.29;101337.81;1054786;28;624;-67
2022/08/21 01:49:28;;;;;;;;;;;;;;;21.75;59.32;101332.69;1053622;28;692;-67
2022/08/21 01:50:19;;;;;;;;;;;;;;;21.75;59.27;101335.41;1053579;28;693;-67
2022/08/21 01:51:09;;;;;;;;;;;;;;;21.77;59.37;101335.25;1053556;28;576;-67
2022/08/21 01:52:00;;;;;;;;;;;;;;;21.75;59.23;101343.53;1053748;28;735;-68
2022/08/21 01:52:50;;;;;;;;;;;;;;;21.76;59.39;101328.13;1053530;28;614;-67
2022/08/21 01:53:41;;;;;;;;;;;;;;;21.72;59.23;101341.16;1053733;28;715;-68
2022/08/21 01:54:31;;;;;;;;;;;;;;;21.76;59.29;101334.41;1054197;28;700;-68
2022/08/21 01:55:21;;;;;;;;;;;;;;;21.78;59.19;101337.81;1053609;28;624;-68
2022/08/21 01:56:12;;;;;;;;;;;;;;;21.78;59.04;101335.09;1053670;28;660;-68
2022/08/21 01:57:02;;;;;;;;;;;;;;;21.78;59.29;101336.94;1054852;28;640;-67
2022/08/21 01:57:53;;;;;;;;;;;;;;;21.74;59.46;101336.41;1049244;28;708;-66
2022/08/21 01:58:43;;;;;;;;;;;;;;;21.76;59.17;101334.41;1049044;28;621;-66
2022/08/21 01:59:34;;;;;;;;;;;;;;;21.75;59.14;101332.69;1053556;28;601;-66
2022/08/21 02:00:24;;;;;;;;;;;;;;;21.76;59.40;101325.41;1054680;28;1882;-66
2022/08/21 02:01:14;;;;;;;;;;;;;;;21.74;59.40;101322.00;1049150;28;548;-66
2022/08/21 02:02:05;;;;;;;;;;;;;;;21.76;59.26;101322.69;1049139;28;708;-66
2022/08/21 02:02:55;;;;;;;;;;;;;;;21.72;59.37;101322.16;1052450;28;639;-66
2022/08/21 02:03:46;;;;;;;;;;;;;;;21.70;59.43;101317.91;1054153;28;700;-66
2022/08/21 02:04:36;;;;;;;;;;;;;;;21.70;59.36;101321.47;1053556;28;633;-66
2022/08/21 02:05:27;;;;;;;;;;;;;;;21.70;59.35;101313.31;1053561;28;641;-66
2022/08/21 02:06:17;;;;;;;;;;;;;;;21.72;59.22;101319.44;1053487;28;621;-66
2022/08/21 02:07:08;;;;;;;;;;;;;;;21.67;59.30;101316.38;1049683;28;653;-66
2022/08/21 02:07:58;;;;;;;;;;;;;;;21.67;59.34;101327.22;1049063;28;625;-66
2022/08/21 02:08:50;;;;;;;;;;;;;;;21.70;59.55;101323.31;1053476;28;641;-67
2022/08/21 02:09:42;;;;;;;;;;;;;;;21.69;59.50;101317.03;1053556;28;590;-66
2022/08/21 02:10:33;;;;;;;;;;;;;;;21.68;59.31;101315.34;1053638;28;704;-66
2022/08/21 02:11:23;;;;;;;;;;;;;;;21.67;59.30;101324.53;1053420;28;660;-66
2022/08/21 02:12:14;;;;;;;;;;;;;;;21.68;59.38;101322.63;1053931;28;1262;-66
2022/08/21 02:13:04;;;;;;;;;;;;;;;21.70;58.88;101323.31;1053503;28;606;-66
2022/08/21 02:13:55;;;;;;;;;;;;;;;21.67;59.27;101319.09;1053492;28;612;-66
2022/08/21 02:14:45;;;;;;;;;;;;;;;21.66;59.41;101317.38;1053605;28;637;-67
2022/08/21 02:15:36;;;;;;;;;;;;;;;21.65;59.53;101325.69;1053600;28;617;-67
2022/08/21 02:16:26;;;;;;;;;;;;;;;21.67;59.46;101324.53;1054070;28;585;-67
2022/08/21 02:17:17;;;;;;;;;;;;;;;21.67;59.19;101321.81;1053562;28;684;-67
2022/08/21 02:18:07;;;;;;;;;;;;;;;21.68;59.37;101315.34;1053539;28;610;-67
2022/08/21 02:18:58;;;;;;;;;;;;;;;21.67;58.94;101324.53;1053503;28;712;-67
2022/08/21 02:19:48;;;;;;;;;;;;;;;21.67;59.27;101321.81;1054046;28;635;-67
2022/08/21 02:20:38;;;;;;;;;;;;;;;21.66;59.46;101319.25;1053537;28;681;-67
2022/08/21 02:21:29;;;;;;;;;;;;;;;21.61;59.50;101319.72;1053555;28;693;-67
2022/08/21 02:22:19;;;;;;;;;;;;;;;21.62;59.80;101320.56;1053009;28;633;-67
2022/08/21 02:23:10;;;;;;;;;;;;;;;21.64;59.59;101316.69;1053585;28;681;-67
2022/08/21 02:24:00;;;;;;;;;;;;;;;21.60;59.41;101312.59;1053388;28;653;-67
2022/08/21 02:24:51;;;;;;;;;;;;;;;21.63;59.30;101320.41;1054141;28;673;-67
2022/08/21 02:25:41;;;;;;;;;;;;;;;21.67;59.25;101319.09;1053563;28;667;-67
2022/08/21 02:26:31;;;;;;;;;;;;;;;21.66;59.50;101311.13;1053472;28;677;-67
2022/08/21 02:27:22;;;;;;;;;;;;;;;21.64;59.45;101315.84;1053494;28;642;-67
2022/08/21 02:28:12;;;;;;;;;;;;;;;21.60;59.46;101311.75;1053396;28;645;-67
2022/08/21 02:29:03;;;;;;;;;;;;;;;21.64;59.36;101322.13;1053518;28;664;-67
2022/08/21 02:29:53;;;;;;;;;;;;;;;21.63;59.43;101314.13;1053358;28;712;-67
2022/08/21 02:30:43;;;;;;;;;;;;;;;21.60;59.48;101306.31;1053468;28;618;-67
2022/08/21 02:31:34;;;;;;;;;;;;;;;21.61;59.36;101314.31;1053572;28;637;-67
2022/08/21 02:32:24;;;;;;;;;;;;;;;21.62;59.30;101302.44;1053302;28;688;-67
2022/08/21 02:33:15;;;;;;;;;;;;;;;21.59;59.45;101310.03;1054590;28;684;-66
2022/08/21 02:34:06;;;;;;;;;;;;;;;21.55;59.60;101309.50;1053333;28;625;-66
2022/08/21 02:34:56;;;;;;;;;;;;;;;21.55;59.66;101312.22;1053524;28;652;-67
2022/08/21 02:35:46;;;;;;;;;;;;;;;21.56;59.60;101305.78;1053496;28;697;-67
2022/08/21 02:36:37;;;;;;;;;;;;;;;21.57;59.45;101301.22;1053065;28;668;-67
2022/08/21 02:37:27;;;;;;;;;;;;;;;21.55;59.43;101309.50;1053998;28;637;-67
2022/08/21 02:38:18;;;;;;;;;;;;;;;21.59;59.42;101307.31;1053364;28;732;-67
2022/08/21 02:39:08;;;;;;;;;;;;;;;21.58;59.36;101303.75;1053304;28;673;-67
2022/08/21 02:39:58;;;;;;;;;;;;;;;21.58;59.50;101311.03;1050029;28;1148;-67
2022/08/21 02:40:49;;;;;;;;;;;;;;;21.54;59.44;101294.22;1049688;28;672;-66
2022/08/21 02:41:39;;;;;;;;;;;;;;;21.55;59.55;101295.94;1053450;28;676;-66
2022/08/21 02:42:30;;;;;;;;;;;;;;;21.55;59.50;101298.66;1053549;28;597;-66
2022/08/21 02:43:20;;;;;;;;;;;;;;;21.53;59.49;101300.66;1053275;28;641;-66
2022/08/21 02:44:11;;;;;;;;;;;;;;;21.57;59.42;101307.47;1053325;28;595;-66
2022/08/21 02:45:01;;;;;;;;;;;;;;;21.58;59.65;101300.19;1053466;28;649;-67
2022/08/21 02:45:51;;;;;;;;;;;;;;;21.58;59.58;101294.78;1053455;28;657;-66
2022/08/21 02:46:42;;;;;;;;;;;;;;;21.51;59.56;101302.69;1053367;28;664;-66
2022/08/21 02:47:32;;;;;;;;;;;;;;;21.52;59.59;101301.69;1050190;28;704;-66
2022/08/21 02:48:23;;;;;;;;;;;;;;;21.52;59.62;101304.38;1049546;28;673;-66
2022/08/21 02:49:13;;;;;;;;;;;;;;;21.52;59.56;101307.09;1052620;28;680;-66
2022/08/21 02:50:04;;;;;;;;;;;;;;;21.52;59.45;101307.09;1053326;28;934;-66
2022/08/21 02:50:54;;;;;;;;;;;;;;;21.54;59.69;101299.66;1053024;28;647;-66
2022/08/21 02:51:44;;;;;;;;;;;;;;;21.54;59.56;101302.38;1053386;28;615;-66
2022/08/21 02:52:36;;;;;;;;;;;;;;;21.54;59.47;101307.78;1053372;28;708;-66
2022/08/21 02:53:26;;;;;;;;;;;;;;;21.48;59.50;101303.03;1053307;28;629;-67
2022/08/21 02:54:17;;;;;;;;;;;;;;;21.46;59.76;101305.03;1053330;28;728;-66
2022/08/21 02:55:07;;;;;;;;;;;;;;;21.46;59.56;101299.63;1053314;28;606;-67
2022/08/21 02:55:58;;;;;;;;;;;;;;;21.47;59.68;101298.63;1053355;28;565;-66
2022/08/21 02:56:48;;;;;;;;;;;;;;;21.47;59.66;101301.31;1053412;28;641;-66
2022/08/21 02:57:38;;;;;;;;;;;;;;;21.49;59.72;101299.31;1053385;28;689;-66
2022/08/21 02:58:30;;;;;;;;;;;;;;;21.50;59.58;101300.97;1053366;28;673;-66
2022/08/21 02:59:20;;;;;;;;;;;;;;;21.52;59.44;101301.69;1053787;28;723;-66
2022/08/21 03:00:12;;;;;;;;;;;;;;;21.51;59.57;101294.53;1053873;28;1956;-67
2022/08/21 03:01:03;;;;;;;;;;;;;;;21.50;59.76;101300.97;1053336;28;629;-66
2022/08/21 03:01:53;;;;;;;;;;;;;;;21.47;59.72;101296.75;1053251;28;609;-66
2022/08/21 03:02:46;;;;;;;;;;;;;;;21.45;59.83;101295.22;1053302;28;701;-66
2022/08/21 03:03:36;;;;;;;;;;;;;;;21.46;59.73;101299.63;1053266;28;721;-67
2022/08/21 03:04:27;;;;;;;;;;;;;;;21.43;59.75;101297.22;1053367;28;785;-66
2022/08/21 03:05:17;;;;;;;;;;;;;;;21.45;59.75;101292.50;1053175;28;673;-66
2022/08/21 03:06:08;;;;;;;;;;;;;;;21.43;59.77;101299.94;1053313;28;689;-67
2022/08/21 03:06:58;;;;;;;;;;;;;;;21.44;59.63;101294.34;1053385;28;708;-67
2022/08/21 03:07:48;;;;;;;;;;;;;;;21.45;59.75;101295.22;1053233;28;626;-67
2022/08/21 03:08:39;;;;;;;;;;;;;;;21.40;59.71;101295.69;1053379;28;649;-67
2022/08/21 03:09:29;;;;;;;;;;;;;;;21.41;59.83;101296.53;1048681;28;642;-67
2022/08/21 03:10:20;;;;;;;;;;;;;;;21.38;59.82;101292.28;1048779;28;633;-67
2022/08/21 03:11:10;;;;;;;;;;;;;;;21.41;59.53;101297.38;1053006;28;641;-67
2022/08/21 03:12:01;;;;;;;;;;;;;;;21.43;59.76;101295.38;1053354;28;685;-67
2022/08/21 03:12:51;;;;;;;;;;;;;;;21.45;59.60;101295.22;1052700;28;625;-67
2022/08/21 03:13:42;;;;;;;;;;;;;;;21.45;59.62;101292.50;1052780;28;633;-67
2022/08/21 03:14:32;;;;;;;;;;;;;;;21.46;59.39;101295.06;1053271;28;664;-67
2022/08/21 03:15:26;;;;;;;;;;;;;;;21.42;59.57;101287.38;1052805;28;704;-67
2022/08/21 03:16:16;;;;;;;;;;;;;;;21.44;59.57;101288.09;1052696;28;763;-67
2022/08/21 03:17:07;;;;;;;;;;;;;;;21.41;59.60;101291.09;1052709;28;601;-67
2022/08/21 03:17:57;;;;;;;;;;;;;;;21.41;59.85;101291.97;1052832;28;669;-67
2022/08/21 03:18:48;;;;;;;;;;;;;;;21.45;59.38;101278.94;1052744;28;644;-67
2022/08/21 03:19:39;;;;;;;;;;;;;;;21.45;59.64;101281.66;1053350;28;704;-67
2022/08/21 03:20:32;;;;;;;;;;;;;;;21.45;59.41;101277.06;1053743;28;1906;-67
2022/08/21 03:21:22;;;;;;;;;;;;;;;21.43;59.74;101286.38;1052801;28;743;-67
2022/08/21 03:22:12;;;;;;;;;;;;;;;21.41;59.72;101280.25;1053184;28;676;-67
2022/08/21 03:23:03;;;;;;;;;;;;;;;21.38;59.74;101283.28;1053745;28;731;-67
2022/08/21 03:23:53;;;;;;;;;;;;;;;21.44;59.64;101278.09;1053204;28;680;-67
2022/08/21 03:24:45;;;;;;;;;;;;;;;21.39;59.84;101283.13;1049316;28;681;-67
2022/08/21 03:25:35;;;;;;;;;;;;;;;21.39;59.79;101279.56;1048862;28;649;-67
2022/08/21 03:26:26;;;;;;;;;;;;;;;21.37;59.76;101281.56;1053093;28;625;-67
2022/08/21 03:27:16;;;;;;;;;;;;;;;21.42;59.40;101281.97;1053867;28;647;-66
2022/08/21 03:28:06;;;;;;;;;;;;;;;21.43;59.67;101278.25;1049425;28;630;-67
2022/08/21 03:28:57;;;;;;;;;;;;;;;21.42;59.60;101287.38;1049423;28;704;-67
2022/08/21 03:29:47;;;;;;;;;;;;;;;21.39;59.66;101288.56;1053712;28;609;-67
2022/08/21 03:30:38;;;;;;;;;;;;;;;21.40;59.67;101286.69;1053754;28;695;-67
2022/08/21 03:31:30;;;;;;;;;;;;;;;21.41;59.69;101282.97;1053107;28;641;-68
2022/08/21 03:32:21;;;;;;;;;;;;;;;21.39;59.74;101285.84;1053780;28;692;-67
2022/08/21 03:33:11;;;;;;;;;;;;;;;21.34;59.65;101280.03;1053946;28;694;-68
2022/08/21 03:34:02;;;;;;;;;;;;;;;21.36;59.61;101283.44;1053063;28;684;-66
2022/08/21 03:34:52;;;;;;;;;;;;;;;21.41;59.69;101280.25;1053144;28;683;-68
2022/08/21 03:35:42;;;;;;;;;;;;;;;21.41;59.59;101286.53;1053270;28;586;-65
2022/08/21 03:36:33;;;;;;;;;;;;;;;21.40;59.66;101289.41;1053724;28;637;-66
2022/08/21 03:37:24;;;;;;;;;;;;;;;21.38;59.71;101286.00;1053827;28;632;-66
2022/08/21 03:38:14;;;;;;;;;;;;;;;21.40;59.72;101287.53;1053792;28;626;-66
2022/08/21 03:39:05;;;;;;;;;;;;;;;21.37;59.62;101290.56;1053140;28;653;-66
2022/08/21 03:39:55;;;;;;;;;;;;;;;21.36;59.66;101286.16;1052938;28;1100;-66
2022/08/21 03:40:46;;;;;;;;;;;;;;;21.34;59.70;101287.31;1053050;28;661;-67
2022/08/21 03:41:36;;;;;;;;;;;;;;;21.36;59.13;101279.88;1053154;28;606;-66
2022/08/21 03:42:26;;;;;;;;;;;;;;;21.38;59.46;101269.72;1053102;28;641;-66
2022/08/21 03:43:17;;;;;;;;;;;;;;;21.38;59.53;101269.72;1053079;28;742;-66
2022/08/21 03:44:07;;;;;;;;;;;;;;;21.35;59.77;101272.75;1053139;28;656;-66
2022/08/21 03:44:58;;;;;;;;;;;;;;;21.34;59.50;101277.31;1053210;28;863;-67
2022/08/21 03:45:48;;;;;;;;;;;;;;;21.29;59.99;101274.25;1049272;28;673;-66
2022/08/21 03:46:39;;;;;;;;;;;;;;;21.34;59.83;101265.63;1049164;28;699;-66
2022/08/21 03:47:30;;;;;;;;;;;;;;;21.27;59.81;101272.72;1053776;28;656;-66
2022/08/21 03:48:20;;;;;;;;;;;;;;;21.31;59.97;101268.69;1053080;28;708;-66
2022/08/21 03:49:12;;;;;;;;;;;;;;;21.36;59.73;101266.31;1052509;28;688;-66
2022/08/21 03:50:03;;;;;;;;;;;;;;;21.34;59.59;101271.03;1053023;28;700;-67
2022/08/21 03:50:53;;;;;;;;;;;;;;;21.33;59.71;101272.06;1053721;28;664;-66
2022/08/21 03:51:44;;;;;;;;;;;;;;;21.34;59.63;101271.91;1053755;28;692;-67
2022/08/21 03:52:34;;;;;;;;;;;;;;;21.34;59.72;101274.59;1053101;28;648;-67
2022/08/21 03:53:25;;;;;;;;;;;;;;;21.36;59.71;101271.75;1052997;28;684;-66
2022/08/21 03:54:15;;;;;;;;;;;;;;;21.35;59.75;101261.91;1049237;28;665;-66
2022/08/21 03:55:06;;;;;;;;;;;;;;;21.38;59.61;101267.00;1048740;28;649;-67
2022/08/21 03:55:56;;;;;;;;;;;;;;;21.39;59.57;101271.44;1053695;28;621;-66
2022/08/21 03:56:47;;;;;;;;;;;;;;;21.35;59.60;101267.31;1053091;28;597;-67
2022/08/21 03:57:37;;;;;;;;;;;;;;;21.31;59.70;101260.53;1052944;28;601;-67
2022/08/21 03:58:28;;;;;;;;;;;;;;;21.29;59.81;101267.97;1053119;28;593;-67
2022/08/21 03:59:18;;;;;;;;;;;;;;;21.28;59.82;101263.56;1053210;28;660;-67
2022/08/21 04:00:11;;;;;;;;;;;;;;;21.30;59.65;101265.13;1053022;28;1902;-67
2022/08/21 04:01:02;;;;;;;;;;;;;;;21.28;59.80;101269.00;1053702;28;625;-67
2022/08/21 04:01:52;;;;;;;;;;;;;;;21.30;59.74;101265.13;1053010;28;664;-67
2022/08/21 04:02:45;;;;;;;;;;;;;;;21.33;59.57;101272.06;1053079;28;660;-66
2022/08/21 04:03:36;;;;;;;;;;;;;;;21.28;59.83;101264.41;1052590;28;731;-67
2022/08/21 04:04:26;;;;;;;;;;;;;;;21.27;59.76;101268.13;1053126;28;692;-67
2022/08/21 04:05:26;;;;;;;;;;;;;;;21.29;59.82;101266.13;1053282;28;664;-67
2022/08/21 04:06:17;;;;;;;;;;;;;;;21.31;59.65;101261.41;1053199;28;617;-67
2022/08/21 04:07:08;;;;;;;;;;;;;;;21.27;59.86;101267.28;1049232;28;593;-67
2022/08/21 04:07:58;;;;;;;;;;;;;;;21.26;59.83;101257.44;1049155;28;708;-67
2022/08/21 04:08:49;;;;;;;;;;;;;;;21.23;59.80;101264.03;1048476;28;735;-67
2022/08/21 04:09:39;;;;;;;;;;;;;;;21.20;59.98;101267.06;1049199;28;716;-67
2022/08/21 04:10:30;;;;;;;;;;;;;;;21.19;60.09;101269.88;1052942;28;633;-67
2022/08/21 04:11:20;;;;;;;;;;;;;;;21.25;59.89;101263.88;1053675;28;688;-67
2022/08/21 04:12:11;;;;;;;;;;;;;;;21.28;59.57;101266.28;1053045;28;1168;-66
2022/08/21 04:13:01;;;;;;;;;;;;;;;21.26;59.79;101262.88;1052878;28;618;-67
2022/08/21 04:13:52;;;;;;;;;;;;;;;21.27;59.82;101261.88;1053100;28;601;-67
2022/08/21 04:14:42;;;;;;;;;;;;;;;21.26;59.79;101262.88;1047691;28;645;-66
2022/08/21 04:15:33;;;;;;;;;;;;;;;21.26;59.82;101262.88;1049183;28;650;-67
2022/08/21 04:16:23;;;;;;;;;;;;;;;21.21;59.98;101266.06;1049706;28;645;-67
2022/08/21 04:17:13;;;;;;;;;;;;;;;21.24;59.91;101267.59;1049291;28;672;-67
2022/08/21 04:18:04;;;;;;;;;;;;;;;21.27;59.73;101270.00;1053241;28;692;-67
2022/08/21 04:18:54;;;;;;;;;;;;;;;21.26;59.90;101271.00;1054399;28;720;-67
2022/08/21 04:19:45;;;;;;;;;;;;;;;21.28;59.68;101275.25;1053087;28;622;-67
2022/08/21 04:20:36;;;;;;;;;;;;;;;21.29;59.68;101276.13;1052881;28;1902;-67
2022/08/21 04:21:26;;;;;;;;;;;;;;;21.28;59.69;101274.41;1053060;28;649;-67
2022/08/21 04:22:16;;;;;;;;;;;;;;;21.28;59.76;101272.56;1052989;28;637;-66
2022/08/21 04:23:07;;;;;;;;;;;;;;;21.26;59.81;101271.84;1053087;28;676;-67
2022/08/21 04:23:58;;;;;;;;;;;;;;;21.25;59.77;101277.44;1053196;28;697;-67
2022/08/21 04:24:49;;;;;;;;;;;;;;;21.22;59.85;101275.03;1052853;28;679;-67
2022/08/21 04:25:40;;;;;;;;;;;;;;;21.20;60.01;101277.06;1053039;28;630;-67
2022/08/21 04:26:30;;;;;;;;;;;;;;;21.20;59.88;101271.63;1053141;28;629;-67